Time;durP1;ratioP1;P1;durP2;ratioP2;P2;SDS_P1;SDS_P2;PMS_P1;PMS_P2;Temp;Humidity;BMP_temperature;BMP_pressure;BME280_temperature;BME280_humidity;BME280_pressure;Samples;Min_cycle;Max_cycle;Signal;HPM_P1;HPM_P2
2023/01/31 00:00:18;;;;;;;10.77;2.77;;;;;;;3.15;91.32;100950.13;5057517;28;20210;-81
2023/01/31 00:02:44;;;;;;;10.83;3.10;;;;;;;3.14;91.94;100913.16;5057533;28;20201;-80
2023/01/31 00:05:11;;;;;;;9.97;3.00;;;;;;;3.10;91.96;100910.50;5057201;28;20292;-80
2023/01/31 00:07:37;;;;;;;15.93;3.70;;;;;;;3.02;92.76;100891.44;5057191;28;20273;-79
2023/01/31 00:10:05;;;;;;;15.20;2.87;;;;;;;2.91;93.67;100871.44;5056763;28;20677;-80
2023/01/31 00:12:32;;;;;;;8.53;2.30;;;;;;;2.96;93.81;100853.50;5056871;28;20746;-80
2023/01/31 00:14:59;;;;;;;14.67;2.77;;;;;;;3.14;94.01;100852.97;5047761;28;20228;-79
2023/01/31 00:17:25;;;;;;;17.03;2.67;;;;;;;3.15;92.74;100876.22;5037326;28;20205;-79
2023/01/31 00:19:51;;;;;;;10.43;2.67;;;;;;;3.12;92.92;100885.59;5036891;28;20210;-80
2023/01/31 00:22:18;;;;;;;10.80;3.10;;;;;;;3.20;92.71;100893.50;5037521;28;20262;-80
2023/01/31 00:24:44;;;;;;;11.93;2.63;;;;;;;3.28;92.36;100904.81;5037026;28;20205;-79
2023/01/31 00:27:12;;;;;;;14.03;2.97;;;;;;;3.30;91.94;100918.59;5037660;28;20284;-79
2023/01/31 00:29:38;;;;;;;12.40;2.60;;;;;;;3.26;91.99;100921.97;5037380;28;20231;-80
2023/01/31 00:32:04;;;;;;;16.03;2.73;;;;;;;3.36;91.85;100940.22;5037315;28;20206;-79
2023/01/31 00:34:31;;;;;;;10.00;2.53;;;;;;;3.38;91.27;100946.28;5037078;28;20749;-79
2023/01/31 00:36:57;;;;;;;11.63;2.83;;;;;;;3.50;90.56;100958.53;5036761;28;20222;-80
2023/01/31 00:39:24;;;;;;;16.33;2.00;;;;;;;3.49;90.44;100974.00;5036688;28;20212;-79
2023/01/31 00:41:50;;;;;;;5.60;2.00;;;;;;;3.56;90.42;100992.19;5036623;28;20673;-79
2023/01/31 00:44:18;;;;;;;13.93;3.53;;;;;;;3.56;89.96;100992.19;5036793;28;20730;-80
2023/01/31 00:46:44;;;;;;;9.67;1.80;;;;;;;3.75;89.08;101020.97;5035497;28;20234;-79
2023/01/31 00:49:11;;;;;;;7.03;1.47;;;;;;;3.70;89.66;101035.47;5036339;28;20210;-78
2023/01/31 00:51:37;;;;;;;8.13;2.43;;;;;;;3.57;91.53;100987.94;5036290;28;20233;-80
2023/01/31 00:54:04;;;;;;;13.47;2.80;;;;;;;3.52;92.80;100968.91;5036848;28;20207;-80
2023/01/31 00:56:30;;;;;;;5.67;1.17;;;;;;;3.49;93.28;100950.75;5036496;28;20234;-79
2023/01/31 00:58:56;;;;;;;7.10;1.27;;;;;;;3.37;93.59;100931.66;5036592;28;20210;-79
2023/01/31 01:01:26;;;;;;;7.73;1.80;;;;;;;3.37;94.38;100910.16;5036028;28;20211;-79
2023/01/31 01:03:53;;;;;;;8.27;1.80;;;;;;;3.36;94.87;100904.09;5036419;28;20202;-79
2023/01/31 01:06:20;;;;;;;7.43;2.20;;;;;;;3.40;94.71;100902.44;5036135;28;20277;-79
2023/01/31 01:08:47;;;;;;;7.93;1.80;;;;;;;3.43;94.86;100893.88;5035175;28;20755;-79
2023/01/31 01:11:15;;;;;;;5.60;1.93;;;;;;;3.44;95.83;100872.41;5035262;28;20211;-79
2023/01/31 01:13:43;;;;;;;5.17;1.70;;;;;;;3.48;96.78;100848.38;5035586;28;20260;-79
2023/01/31 01:16:12;;;;;;;10.40;2.17;;;;;;;3.40;97.34;100827.63;5035003;28;20222;-79
2023/01/31 01:18:43;;;;;;;8.53;1.90;;;;;;;3.28;98.62;100809.34;5034408;28;20248;-80
2023/01/31 01:21:14;;;;;;;8.33;2.93;;;;;;;3.28;99.27;100792.16;5034906;28;20202;-78
2023/01/31 01:23:41;;;;;;;8.23;2.53;;;;;;;3.23;99.83;100774.88;5036024;28;20206;-79
2023/01/31 01:26:14;;;;;;;12.33;2.17;;;;;;;3.35;100.00;100773.38;5035498;28;20228;-79
2023/01/31 01:28:40;;;;;;;12.13;2.53;;;;;;;3.46;99.67;100786.41;5035397;28;20423;-79
2023/01/31 01:31:08;;;;;;;12.77;2.67;;;;;;;3.43;99.87;100793.25;5035493;28;20206;-79
2023/01/31 01:33:35;;;;;;;12.63;2.33;;;;;;;3.45;99.27;100805.34;5035055;28;20210;-79
2023/01/31 01:36:04;;;;;;;20.43;3.50;;;;;;;3.52;98.57;100832.97;5034856;28;20276;-79
2023/01/31 01:38:33;;;;;;;12.67;3.03;;;;;;;3.32;98.43;100835.22;5035353;28;20202;-78
2023/01/31 01:40:59;;;;;;;25.63;3.17;;;;;;;3.42;97.26;100856.88;5035047;28;20206;-80
2023/01/31 01:43:39;;;;;;;11.33;2.60;;;;;;;3.35;96.91;100870.53;5035291;28;20202;-79
2023/01/31 01:46:07;;;;;;;14.93;2.97;;;;;;;3.36;96.75;100882.59;5034578;28;20229;-79
2023/01/31 01:48:33;;;;;;;11.07;2.33;;;;;;;3.26;96.70;100902.19;5034937;28;20227;-78
2023/01/31 01:51:03;;;;;;;10.03;2.20;;;;;;;3.29;96.87;100909.13;5034995;28;20738;-78
2023/01/31 01:53:31;;;;;;;14.70;3.13;;;;;;;3.37;96.68;100905.84;5034931;28;20209;-79
2023/01/31 01:56:01;;;;;;;13.80;2.70;;;;;;;3.48;95.90;100929.25;5035128;28;20248;-79
2023/01/31 01:58:31;;;;;;;11.57;2.47;;;;;;;3.57;95.40;100931.16;5033933;28;20264;-79
2023/01/31 02:00:58;;;;;;;11.07;2.87;;;;;;;3.54;95.35;100931.06;5034735;28;20206;-79
2023/01/31 02:03:26;;;;;;;9.53;3.80;;;;;;;3.55;95.34;100945.75;5034684;28;20256;-79
2023/01/31 02:05:55;;;;;;;11.53;4.23;;;;;;;3.62;94.84;100952.72;5034771;28;20650;-78
2023/01/31 02:08:23;;;;;;;14.67;2.50;;;;;;;3.65;95.18;100965.72;5035071;28;20272;-79
2023/01/31 02:10:56;;;;;;;13.63;2.57;;;;;;;3.61;94.62;100979.41;5034439;28;20742;-80
2023/01/31 02:13:23;;;;;;;7.57;2.70;;;;;;;3.55;95.22;100976.72;5035002;28;20259;-79
2023/01/31 02:15:49;;;;;;;21.07;2.63;;;;;;;3.63;94.81;100979.41;5034615;28;20222;-78
2023/01/31 02:18:18;;;;;;;14.50;3.53;;;;;;;3.58;94.79;100982.78;5034941;28;20618;-79
2023/01/31 02:21:15;;;;;;;16.53;2.40;;;;;;;3.61;93.99;100999.16;5034340;28;20260;-78
2023/01/31 02:24:23;;;;;;;9.70;2.00;;;;;;;3.70;94.29;101007.94;5034645;28;20614;-79
2023/01/31 02:27:21;;;;;;;12.60;3.03;;;;;;;3.69;93.51;101020.84;5034210;28;20761;-78
2023/01/31 02:30:06;;;;;;;14.17;2.17;;;;;;;3.73;93.53;101032.97;5034158;28;20269;-78
2023/01/31 02:32:48;;;;;;;6.57;2.00;;;;;;;3.70;92.92;101031.19;5034951;28;20206;-79
2023/01/31 02:35:28;;;;;;;11.20;2.13;;;;;;;3.56;93.63;101032.63;5034133;28;20222;-78
2023/01/31 02:38:03;;;;;;;5.93;1.53;;;;;;;3.57;93.85;101016.31;5034329;28;20209;-78
2023/01/31 02:40:38;;;;;;;10.10;1.50;;;;;;;3.40;95.51;100995.34;5034086;28;20205;-79
2023/01/31 02:43:11;;;;;;;9.30;2.67;;;;;;;3.46;95.94;100969.66;5035005;28;20257;-78
2023/01/31 02:45:45;;;;;;;4.67;1.20;;;;;;;3.40;95.73;100973.84;5033576;28;20235;-78
2023/01/31 02:48:24;;;;;;;4.93;1.63;;;;;;;3.40;97.87;100941.16;5034124;28;20716;-78
2023/01/31 02:50:59;;;;;;;5.77;1.70;;;;;;;3.32;99.44;100914.34;5034395;28;20255;-79
2023/01/31 02:53:31;;;;;;;6.60;1.73;;;;;;;3.18;100.00;100867.66;5034340;28;20629;-79
2023/01/31 02:56:19;;;;;;;4.07;1.70;;;;;;;3.01;100.00;100820.06;5034368;28;20230;-79
2023/01/31 02:58:53;;;;;;;7.83;1.70;;;;;;;3.00;100.00;100762.47;5034200;28;20218;-78
2023/01/31 03:01:24;;;;;;;6.87;2.00;;;;;;;2.98;100.00;100754.69;5033947;28;20265;-78
2023/01/31 03:03:52;;;;;;;11.00;2.93;;;;;;;3.04;100.00;100740.19;5034100;28;20211;-79
2023/01/31 03:06:42;;;;;;;7.57;2.17;;;;;;;3.02;100.00;100741.88;5033789;28;20721;-78
2023/01/31 03:09:20;;;;;;;6.53;2.27;;;;;;;3.04;100.00;100748.78;5033288;28;20235;-79
2023/01/31 03:11:52;;;;;;;9.30;2.20;;;;;;;3.13;100.00;100761.84;5040324;28;20201;-79
2023/01/31 03:14:26;;;;;;;7.30;3.03;;;;;;;3.17;100.00;100776.53;5040558;28;20208;-78
2023/01/31 03:19:48;;;;;;;7.97;2.30;;;;;;;3.29;100.00;100796.50;5039736;28;20252;-79
2023/01/31 03:22:19;;;;;;;10.40;2.17;;;;;;;3.29;100.00;100818.81;5040429;28;20202;-79
2023/01/31 03:24:47;;;;;;;8.40;2.53;;;;;;;3.24;100.00;100812.72;5039793;28;20695;-79
2023/01/31 03:27:14;;;;;;;11.87;2.17;;;;;;;3.36;100.00;100826.69;5041749;28;20238;-79
2023/01/31 03:29:43;;;;;;;13.40;3.40;;;;;;;3.29;100.00;100830.03;5042773;28;20209;-79
2023/01/31 03:32:20;;;;;;;8.40;2.33;;;;;;;3.46;99.86;100850.94;5042691;28;20264;-79
2023/01/31 03:34:50;;;;;;;9.30;2.93;;;;;;;3.47;99.25;100868.19;5042814;28;20233;-79
2023/01/31 03:37:21;;;;;;;10.27;2.87;;;;;;;3.56;98.59;100878.63;5042326;28;20485;-80
2023/01/31 03:39:56;;;;;;;11.73;3.50;;;;;;;3.52;97.97;100896.63;5041461;28;20257;-80
2023/01/31 03:42:28;;;;;;;8.40;3.07;;;;;;;3.48;98.10;100902.59;5042349;28;20229;-79
2023/01/31 03:45:02;;;;;;;13.33;2.17;;;;;;;3.48;97.71;100907.75;5042863;28;20238;-79
2023/01/31 03:47:33;;;;;;;12.43;2.73;;;;;;;3.53;97.75;100908.72;5042693;28;20217;-79
2023/01/31 03:50:06;;;;;;;15.90;3.33;;;;;;;3.49;97.24;100920.69;5042334;28;20207;-79
2023/01/31 03:52:37;;;;;;;18.33;3.27;;;;;;;3.45;97.04;100915.41;5042431;28;20738;-80
2023/01/31 03:55:10;;;;;;;12.23;2.50;;;;;;;3.48;96.77;100929.25;5042238;28;20222;-79
2023/01/31 03:57:39;;;;;;;10.00;2.47;;;;;;;3.52;96.34;100943.94;5043371;28;20256;-79
2023/01/31 04:00:11;;;;;;;9.60;2.23;;;;;;;3.43;96.08;100956.72;5042377;28;20206;-79
2023/01/31 04:02:38;;;;;;;12.70;3.20;;;;;;;3.47;95.30;100981.72;5042363;28;20210;-79
2023/01/31 04:05:10;;;;;;;13.33;2.67;;;;;;;3.37;94.90;100975.53;5041705;28;20226;-80
2023/01/31 04:07:37;;;;;;;11.30;2.53;;;;;;;3.49;94.79;100966.25;5042486;28;20228;-80
2023/01/31 04:10:07;;;;;;;13.03;2.60;;;;;;;3.30;95.38;100983.97;5042114;28;20753;-80
2023/01/31 04:12:36;;;;;;;8.70;2.33;;;;;;;3.33;95.17;100980.56;5042387;28;20750;-79
2023/01/31 04:15:03;;;;;;;12.07;2.70;;;;;;;3.26;95.38;100976.16;5042890;28;20279;-79
2023/01/31 04:17:29;;;;;;;10.67;2.63;;;;;;;3.20;95.58;100974.31;5042544;28;20202;-79
2023/01/31 04:19:56;;;;;;;11.33;4.00;;;;;;;3.26;95.73;100960.66;5041973;28;20256;-79
2023/01/31 04:22:23;;;;;;;7.77;2.20;;;;;;;3.15;96.05;100961.34;5039539;28;20212;-79
2023/01/31 04:24:50;;;;;;;11.37;2.43;;;;;;;3.15;96.24;100952.69;5039831;28;20206;-79
2023/01/31 04:27:16;;;;;;;13.10;2.17;;;;;;;3.09;96.77;100945.75;5039858;28;20202;-79
2023/01/31 04:29:42;;;;;;;11.97;3.17;;;;;;;3.20;96.95;100929.59;5039021;28;20211;-79
2023/01/31 04:32:09;;;;;;;10.83;2.80;;;;;;;3.03;97.09;100937.84;5039383;28;20206;-80
2023/01/31 04:34:35;;;;;;;16.87;3.37;;;;;;;2.99;98.04;100918.00;5038881;28;20206;-78
2023/01/31 04:37:01;;;;;;;12.00;2.87;;;;;;;3.00;97.89;100913.75;5039586;28;20211;-79
2023/01/31 04:39:29;;;;;;;15.40;2.77;;;;;;;3.02;97.90;100915.50;5039419;28;20269;-79
2023/01/31 04:41:56;;;;;;;14.83;2.90;;;;;;;2.99;98.19;100912.84;5039879;28;20210;-79
2023/01/31 04:44:22;;;;;;;15.70;2.40;;;;;;;3.04;97.88;100911.25;5038492;28;20241;-78
2023/01/31 04:46:48;;;;;;;9.67;2.47;;;;;;;3.06;97.53;100911.28;5038577;28;20239;-80
2023/01/31 04:49:15;;;;;;;14.90;2.53;;;;;;;3.11;97.11;100917.38;5038148;28;20786;-79
2023/01/31 04:51:41;;;;;;;11.30;3.17;;;;;;;3.16;96.79;100932.09;5038095;28;20202;-79
2023/01/31 04:54:08;;;;;;;9.00;2.37;;;;;;;3.21;96.21;100939.97;5039450;28;20215;-79
2023/01/31 04:56:35;;;;;;;9.43;2.67;;;;;;;3.21;95.64;100962.28;5038272;28;20223;-79
2023/01/31 04:59:02;;;;;;;10.07;3.17;;;;;;;3.16;95.39;100963.06;5038231;28;20204;-78
2023/01/31 05:01:29;;;;;;;7.10;2.57;;;;;;;3.04;94.91;100982.59;5037713;28;20681;-79
2023/01/31 05:03:55;;;;;;;13.23;2.37;;;;;;;2.95;95.06;100986.72;5038031;28;20298;-79
2023/01/31 05:06:22;;;;;;;10.80;2.63;;;;;;;2.88;95.08;100983.97;5038084;28;20232;-79
2023/01/31 05:08:50;;;;;;;12.13;2.20;;;;;;;2.93;95.26;100984.94;5038793;28;20709;-79
2023/01/31 05:11:16;;;;;;;11.73;2.10;;;;;;;3.03;95.28;100991.16;5038225;28;20296;-80
2023/01/31 05:13:44;;;;;;;9.90;1.67;;;;;;;2.86;95.44;100989.09;5039712;28;20206;-79
2023/01/31 05:16:11;;;;;;;7.50;2.20;;;;;;;2.87;95.73;100980.50;5051298;28;20277;-80
2023/01/31 05:18:38;;;;;;;8.53;2.27;;;;;;;3.05;95.73;100974.88;5057811;28;20677;-79
2023/01/31 05:21:06;;;;;;;8.70;1.90;;;;;;;3.08;94.96;100990.41;5060110;28;20202;-79
2023/01/31 05:23:33;;;;;;;9.63;2.80;;;;;;;3.18;94.82;100994.91;5060853;28;20205;-79
2023/01/31 05:25:59;;;;;;;6.67;2.00;;;;;;;3.17;94.61;101003.50;5059992;28;20221;-79
2023/01/31 05:28:26;;;;;;;10.37;1.83;;;;;;;3.12;95.18;100988.78;5061695;28;20226;-79
2023/01/31 05:30:54;;;;;;;9.33;2.17;;;;;;;3.15;95.11;100989.72;5059339;28;20205;-79
2023/01/31 05:33:20;;;;;;;9.27;2.33;;;;;;;3.22;95.28;101002.72;5060971;28;20205;-79
2023/01/31 05:35:47;;;;;;;9.90;2.40;;;;;;;3.20;94.62;101005.28;5061134;28;20576;-79
2023/01/31 05:38:14;;;;;;;7.23;2.40;;;;;;;3.23;94.95;100995.03;5060466;28;20589;-79
2023/01/31 05:40:40;;;;;;;16.53;2.07;;;;;;;3.19;94.97;101000.94;5059434;28;20209;-79
2023/01/31 05:43:06;;;;;;;9.23;2.13;;;;;;;3.28;94.67;100987.38;5059783;28;20238;-79
2023/01/31 05:45:33;;;;;;;7.93;2.97;;;;;;;3.30;94.67;100996.00;5067630;22;20310;-85
2023/01/31 05:48:01;;;;;;;6.63;2.00;;;;;;;3.19;94.33;100988.03;5056264;28;20303;-84
2023/01/31 05:50:27;;;;;;;13.53;2.17;;;;;;;3.19;95.00;100982.88;5055850;28;20206;-85
2023/01/31 05:52:57;;;;;;;13.00;2.33;;;;;;;3.21;95.08;100980.34;5056375;28;20261;-81
2023/01/31 05:55:23;;;;;;;12.37;3.60;;;;;;;3.14;95.20;100975.06;5053959;28;20614;-83
2023/01/31 05:57:51;;;;;;;10.47;1.97;;;;;;;3.24;95.00;100962.34;5035991;28;20210;-81
2023/01/31 06:00:18;;;;;;;7.73;2.83;;;;;;;3.27;94.96;100963.28;5035760;28;20222;-83
2023/01/31 06:02:45;;;;;;;12.47;3.27;;;;;;;3.17;95.36;100963.91;5036792;28;20261;-81
2023/01/31 06:05:12;;;;;;;9.87;2.67;;;;;;;3.21;95.81;100955.44;5035951;28;20720;-83
2023/01/31 06:07:39;;;;;;;10.43;2.60;;;;;;;3.25;95.37;100952.06;5035446;28;20214;-81
2023/01/31 06:10:08;;;;;;;12.47;2.87;;;;;;;3.42;95.16;100959.25;5034231;28;20212;-82
2023/01/31 06:12:34;;;;;;;13.70;3.10;;;;;;;3.43;94.72;100945.50;5035308;28;20198;-81
2023/01/31 06:15:01;;;;;;;11.17;3.50;;;;;;;3.53;94.84;100955.16;5035535;28;20207;-83
2023/01/31 06:17:27;;;;;;;11.60;3.67;;;;;;;3.51;94.45;100964.59;5036352;28;20665;-83
2023/01/31 06:19:54;;;;;;;7.73;3.43;;;;;;;3.39;94.62;100975.56;5035366;28;20206;-82
2023/01/31 06:22:21;;;;;;;9.57;4.90;;;;;;;3.44;94.74;100957.56;5036144;28;20233;-82
2023/01/31 06:24:48;;;;;;;13.03;3.70;;;;;;;3.51;94.86;100957.72;5035813;28;20615;-83
2023/01/31 06:27:14;;;;;;;13.57;3.37;;;;;;;3.50;95.05;100955.97;5035048;28;20233;-83
2023/01/31 06:29:41;;;;;;;7.57;3.07;;;;;;;3.61;94.64;100961.34;5034802;28;20790;-83
2023/01/31 06:32:07;;;;;;;13.37;3.90;;;;;;;3.61;94.27;100970.75;5035355;28;20211;-83
2023/01/31 06:34:33;;;;;;;11.17;3.87;;;;;;;3.67;93.76;100987.25;5034818;28;20692;-84
2023/01/31 06:37:00;;;;;;;11.17;3.70;;;;;;;3.71;93.72;100983.03;5034638;28;20787;-81
2023/01/31 06:39:27;;;;;;;9.07;3.73;;;;;;;3.73;93.93;100986.50;5035183;28;20265;-81
2023/01/31 06:41:54;;;;;;;13.87;4.17;;;;;;;3.55;94.44;100985.31;5034228;28;20660;-81
2023/01/31 06:44:20;;;;;;;14.30;4.68;;;;;;;3.67;93.94;100974.34;5034331;28;20441;-81
2023/01/31 06:46:47;;;;;;;12.43;3.77;;;;;;;3.66;92.88;100989.78;5033735;28;20239;-81
2023/01/31 06:49:13;;;;;;;11.40;3.37;;;;;;;3.55;93.16;100992.19;5035309;28;20280;-81
2023/01/31 06:51:39;;;;;;;10.07;4.10;;;;;;;3.63;92.72;100989.72;5034442;28;20216;-81
2023/01/31 06:54:06;;;;;;;10.13;3.40;;;;;;;3.66;93.29;100992.38;5034889;28;20269;-82
2023/01/31 06:56:34;;;;;;;10.57;3.20;;;;;;;3.62;92.84;100993.16;5035166;28;20222;-83
2023/01/31 06:59:00;;;;;;;11.40;4.00;;;;;;;3.66;92.88;100990.66;5034570;28;20619;-83
2023/01/31 07:01:26;;;;;;;10.17;3.97;;;;;;;3.56;93.12;100984.47;5034623;28;20207;-82
2023/01/31 07:03:53;;;;;;;18.07;5.63;;;;;;;3.69;92.74;100988.16;5034825;28;20209;-81
2023/01/31 07:06:20;;;;;;;10.97;3.40;;;;;;;3.58;92.91;100981.91;5034784;28;20284;-81
2023/01/31 07:08:46;;;;;;;10.07;4.03;;;;;;;3.70;93.29;100968.34;5034665;28;20257;-83
2023/01/31 07:11:13;;;;;;;13.13;4.87;;;;;;;3.80;93.19;100959.91;5034459;28;20195;-83
2023/01/31 07:13:41;;;;;;;17.07;5.53;;;;;;;3.76;92.74;100968.47;5034379;28;20206;-83
2023/01/31 07:16:07;;;;;;;14.90;5.00;;;;;;;3.80;92.88;100962.50;5035070;28;20329;-83
2023/01/31 07:18:34;;;;;;;13.33;5.07;;;;;;;3.85;93.06;100954.84;5035135;28;20207;-83
2023/01/31 07:21:00;;;;;;;12.27;5.27;;;;;;;3.91;92.98;100954.97;5034544;28;20206;-84
2023/01/31 07:23:26;;;;;;;12.90;6.00;;;;;;;3.95;93.13;100944.69;5034150;28;20275;-81
2023/01/31 07:25:53;;;;;;;21.13;7.53;;;;;;;3.88;93.40;100935.09;5035144;28;20230;-81
2023/01/31 07:28:19;;;;;;;15.27;7.47;;;;;;;3.93;93.06;100923.13;5034722;28;20265;-82
2023/01/31 07:30:47;;;;;;;18.13;7.90;;;;;;;4.04;93.47;100920.72;5034577;28;20256;-83
2023/01/31 07:33:13;;;;;;;14.33;7.20;;;;;;;4.04;93.41;100907.78;5034383;28;20210;-82
2023/01/31 07:35:41;;;;;;;16.07;8.20;;;;;;;3.94;94.24;100899.06;5034261;28;20230;-82
2023/01/31 07:38:08;;;;;;;19.83;8.87;;;;;;;3.93;94.11;100886.97;5034497;28;20203;-81
2023/01/31 07:40:34;;;;;;;15.50;8.80;;;;;;;3.98;94.09;100871.53;5034154;28;20623;-82
2023/01/31 07:43:00;;;;;;;14.30;8.30;;;;;;;4.08;93.68;100873.41;5032296;28;20204;-82
2023/01/31 07:45:27;;;;;;;16.93;9.13;;;;;;;4.08;93.86;100868.25;5033800;28;20252;-79
2023/01/31 07:47:57;;;;;;;17.17;7.93;;;;;;;4.08;93.09;100876.00;5034288;28;20753;-82
2023/01/31 07:50:25;;;;;;;16.07;8.30;;;;;;;4.00;93.11;100877.59;5034598;28;20287;-80
2023/01/31 07:52:52;;;;;;;21.83;11.33;;;;;;;4.00;93.14;100880.19;5034819;28;20210;-81
2023/01/31 07:55:18;;;;;;;18.13;8.53;;;;;;;4.10;93.60;100864.00;5034790;28;20202;-79
2023/01/31 07:57:45;;;;;;;13.57;7.63;;;;;;;4.08;93.13;100876.00;5035515;28;20739;-81
2023/01/31 08:05:38;;;;;;;13.10;7.40;;;;;;;4.14;92.93;100878.69;5038091;28;20233;-82
2023/01/31 08:08:10;;;;;;;18.83;6.80;;;;;;;4.25;92.53;100877.97;5037735;28;20203;-80
2023/01/31 08:10:36;;;;;;;16.40;7.53;;;;;;;4.26;92.25;100895.19;5054559;28;20245;-81
2023/01/31 08:13:03;;;;;;;12.67;7.67;;;;;;;4.35;91.90;100910.84;5055123;28;20211;-82
2023/01/31 08:15:29;;;;;;;13.97;7.43;;;;;;;4.25;91.86;100920.19;5026883;28;20200;-82
2023/01/31 08:17:56;;;;;;;12.43;8.13;;;;;;;4.27;92.08;100904.69;5026829;28;20199;-81
2023/01/31 08:20:22;;;;;;;10.10;7.50;;;;;;;4.33;91.81;100900.47;5026080;28;20191;-83
2023/01/31 08:22:50;;;;;;;15.83;8.00;;;;;;;4.42;91.60;100896.28;5035299;28;20207;-83
2023/01/31 08:25:16;;;;;;;10.20;7.70;;;;;;;4.45;91.34;100904.94;5038212;28;20234;-81
2023/01/31 08:27:42;;;;;;;13.47;8.23;;;;;;;4.46;90.75;100896.34;5038957;28;20208;-80
2023/01/31 08:30:14;;;;;;;12.57;7.73;;;;;;;4.64;91.28;100893.13;5036703;28;20227;-80
2023/01/31 08:32:41;;;;;;;14.57;8.10;;;;;;;4.76;90.41;100889.84;5030683;28;20742;-81
2023/01/31 08:35:07;;;;;;;15.80;7.23;;;;;;;4.87;89.91;100889.94;5028113;28;20195;-82
2023/01/31 08:37:34;;;;;;;14.17;8.50;;;;;;;4.89;89.24;100903.78;5026141;28;20276;-80
2023/01/31 08:40:02;;;;;;;13.37;7.60;;;;;;;4.95;88.28;100927.13;5024021;28;20667;-83
2023/01/31 08:42:29;;;;;;;14.33;6.70;;;;;;;4.84;88.58;100947.69;5027083;28;20203;-84
2023/01/31 08:44:55;;;;;;;18.87;6.93;;;;;;;4.89;87.91;100951.19;5028952;28;20203;-82
2023/01/31 08:47:21;;;;;;;12.30;7.23;;;;;;;5.03;87.72;100963.44;5024897;28;20782;-82
2023/01/31 08:49:48;;;;;;;17.33;6.90;;;;;;;4.91;87.26;100958.97;5026960;28;20229;-82
2023/01/31 08:52:14;;;;;;;14.80;6.63;;;;;;;4.91;87.71;100957.25;5027112;28;20207;-82
2023/01/31 08:54:41;;;;;;;14.37;6.70;;;;;;;4.88;87.10;100972.75;5028237;28;20620;-85
2023/01/31 08:57:08;;;;;;;13.87;5.60;;;;;;;4.89;87.47;100955.50;5029058;28;20231;-83
2023/01/31 08:59:35;;;;;;;16.63;7.10;;;;;;;4.96;87.95;100965.09;5023982;28;20565;-84
2023/01/31 09:02:02;;;;;;;22.47;8.43;;;;;;;5.00;88.37;100956.53;5027930;28;20215;-81
2023/01/31 09:04:28;;;;;;;14.23;7.47;;;;;;;4.99;87.23;100947.00;5026941;28;20205;-84
2023/01/31 09:06:55;;;;;;;13.27;7.03;;;;;;;4.90;88.09;100927.06;5027777;28;20731;-83
2023/01/31 09:09:21;;;;;;;16.30;7.40;;;;;;;4.86;86.95;100950.31;5025584;28;20571;-82
2023/01/31 09:11:47;;;;;;;20.70;9.03;;;;;;;4.88;87.35;100958.97;5023795;28;20262;-81
2023/01/31 09:14:15;;;;;;;18.43;7.27;;;;;;;4.95;87.33;100950.41;5027470;28;20198;-82
2023/01/31 09:16:41;;;;;;;14.40;7.93;;;;;;;5.03;87.42;100946.19;5027528;28;20217;-80
2023/01/31 09:19:08;;;;;;;18.50;8.03;;;;;;;5.07;86.89;100963.47;5027985;28;20657;-82
2023/01/31 09:21:35;;;;;;;10.33;7.47;;;;;;;5.05;85.79;100974.66;5028961;28;20205;-81
2023/01/31 09:24:02;;;;;;;15.70;8.07;;;;;;;5.07;86.08;100980.72;5028452;28;20209;-82
2023/01/31 09:26:29;;;;;;;13.23;7.73;;;;;;;5.07;86.21;100957.44;5026991;28;20616;-81
2023/01/31 09:28:56;;;;;;;15.30;7.57;;;;;;;4.97;86.14;100972.88;5028889;28;20211;-82
2023/01/31 09:31:24;;;;;;;15.73;8.13;;;;;;;4.99;86.33;100975.47;5027593;28;20198;-82
2023/01/31 09:33:51;;;;;;;17.27;8.33;;;;;;;4.91;86.88;100971.91;5027459;28;20206;-82
2023/01/31 09:36:19;;;;;;;13.60;8.27;;;;;;;4.98;86.07;100976.31;5026206;28;20232;-79
2023/01/31 09:38:46;;;;;;;10.47;7.87;;;;;;;5.02;85.97;100965.16;5028318;28;20206;-81
2023/01/31 09:41:19;;;;;;;15.20;8.40;;;;;;;5.02;86.95;100943.59;5024062;28;20211;-81
2023/01/31 09:43:51;;;;;;;16.40;8.20;;;;;;;4.89;88.55;100920.16;5027655;28;20202;-81
2023/01/31 09:46:22;;;;;;;19.87;9.00;;;;;;;4.92;88.90;100883.13;5025757;28;20299;-82
2023/01/31 09:48:54;;;;;;;16.27;7.80;;;;;;;4.81;89.44;100875.22;5028154;28;20249;-80
2023/01/31 09:51:20;;;;;;;13.93;8.87;;;;;;;4.84;90.88;100857.16;5026346;28;20250;-80
2023/01/31 09:53:47;;;;;;;14.50;8.30;;;;;;;4.56;93.58;100804.28;5027158;28;20270;-81
2023/01/31 09:56:23;;;;;;;12.57;9.23;;;;;;;4.59;96.02;100703.47;5027553;28;20220;-80
2023/01/31 09:58:58;;;;;;;12.03;8.37;;;;;;;4.22;98.15;100654.00;5026306;28;20500;-82
2023/01/31 10:01:30;;;;;;;14.43;9.33;;;;;;;4.09;100.00;100588.44;5025266;28;20203;-80
2023/01/31 10:04:21;;;;;;;14.77;9.00;;;;;;;4.20;100.00;100539.44;5025031;28;20195;-79
2023/01/31 10:06:54;;;;;;;12.73;8.60;;;;;;;4.09;100.00;100512.66;5026773;28;20293;-82
2023/01/31 10:09:28;;;;;;;15.60;9.43;;;;;;;4.15;100.00;100468.78;5028393;28;20234;-79
2023/01/31 10:11:59;;;;;;;11.27;10.03;;;;;;;4.23;100.00;100438.72;5025501;28;20203;-80
2023/01/31 10:14:34;;;;;;;13.20;8.40;;;;;;;4.24;100.00;100429.22;5025303;28;20199;-80
2023/01/31 10:17:07;;;;;;;15.63;9.53;;;;;;;4.25;100.00;100416.31;5027347;28;20222;-81
2023/01/31 10:19:42;;;;;;;15.53;8.10;;;;;;;4.19;100.00;100400.78;5026919;28;20202;-81
2023/01/31 10:22:12;;;;;;;12.73;8.20;;;;;;;4.07;100.00;100393.81;5026993;28;20206;-80
2023/01/31 10:24:43;;;;;;;9.20;7.70;;;;;;;4.14;100.00;100387.84;5026535;28;20195;-80
2023/01/31 10:27:19;;;;;;;11.17;8.07;;;;;;;4.26;100.00;100381.91;5026880;28;20642;-81
2023/01/31 10:29:52;;;;;;;11.60;7.90;;;;;;;4.23;100.00;100384.47;5025074;28;20281;-79
2023/01/31 10:32:25;;;;;;;13.70;8.27;;;;;;;4.33;100.00;100383.66;5025109;28;20201;-80
2023/01/31 10:34:58;;;;;;;9.67;7.43;;;;;;;4.36;100.00;100399.19;5025568;28;20224;-80
2023/01/31 10:37:32;;;;;;;8.67;7.30;;;;;;;4.27;100.00;100385.34;5027282;28;20221;-79
2023/01/31 10:40:02;;;;;;;10.80;6.87;;;;;;;4.29;100.00;100397.41;5023600;28;20199;-79
2023/01/31 10:42:32;;;;;;;8.23;6.33;;;;;;;4.37;100.00;100400.03;5023084;28;20253;-79
2023/01/31 10:45:02;;;;;;;8.80;6.23;;;;;;;4.44;100.00;100409.56;5025661;28;20345;-80
2023/01/31 10:47:32;;;;;;;7.60;5.73;;;;;;;4.45;100.00;100413.88;5036174;28;20234;-81
2023/01/31 10:50:01;;;;;;;7.67;5.07;;;;;;;4.51;100.00;100425.97;5036059;28;20278;-80
2023/01/31 10:52:45;;;;;;;7.50;5.70;;;;;;;4.50;100.00;100421.63;5035892;28;20681;-79
2023/01/31 10:55:32;;;;;;;9.47;5.93;;;;;;;4.48;100.00;100418.19;5036110;28;20211;-79
2023/01/31 10:57:59;;;;;;;6.63;5.70;;;;;;;4.58;100.00;100428.59;5036144;28;20742;-80
2023/01/31 11:00:29;;;;;;;7.03;4.90;;;;;;;4.50;100.00;100440.63;5036443;28;20259;-79
2023/01/31 11:02:57;;;;;;;10.47;5.13;;;;;;;4.61;100.00;100458.75;5036668;28;20243;-78
2023/01/31 11:05:28;;;;;;;5.07;4.60;;;;;;;4.51;100.00;100451.81;5037014;28;20217;-79
2023/01/31 11:07:57;;;;;;;6.07;5.43;;;;;;;4.65;100.00;100433.78;5037505;28;20210;-82
2023/01/31 11:10:26;;;;;;;5.70;5.00;;;;;;;4.69;100.00;100448.47;5036285;28;20279;-81
2023/01/31 11:12:54;;;;;;;8.03;5.43;;;;;;;4.73;100.00;100438.13;5053066;28;20190;-83
2023/01/31 11:15:25;;;;;;;9.30;6.30;;;;;;;4.82;100.00;100393.38;5057442;28;20204;-82
2023/01/31 11:17:52;;;;;;;9.03;5.87;;;;;;;4.78;99.92;100420.94;5057151;28;20186;-80
2023/01/31 11:20:23;;;;;;;7.97;5.57;;;;;;;4.76;99.42;100427.81;5055886;28;20215;-82
2023/01/31 11:22:52;;;;;;;6.00;5.40;;;;;;;4.72;99.95;100439.00;5055256;28;20198;-81
2023/01/31 11:25:21;;;;;;;6.87;5.23;;;;;;;4.81;99.62;100445.94;5053840;28;20212;-81
2023/01/31 11:27:48;;;;;;;6.80;5.90;;;;;;;4.89;99.55;100446.81;5057115;28;20234;-81
2023/01/31 11:30:25;;;;;;;7.80;5.33;;;;;;;4.86;99.08;100441.66;5056214;28;20210;-80
2023/01/31 11:32:52;;;;;;;6.10;4.93;;;;;;;4.89;99.19;100438.22;5060592;28;20202;-82
2023/01/31 11:35:24;;;;;;;6.13;4.73;;;;;;;4.93;98.71;100440.81;5061010;28;20223;-81
2023/01/31 11:37:54;;;;;;;6.00;5.00;;;;;;;5.01;98.64;100443.41;5060327;28;20192;-82
2023/01/31 11:40:26;;;;;;;5.57;5.07;;;;;;;5.00;98.84;100449.47;5049999;28;20183;-82
2023/01/31 11:42:54;;;;;;;5.80;5.07;;;;;;;4.86;98.86;100446.81;5043995;28;20211;-81